Time;durP1;ratioP1;P1;durP2;ratioP2;P2;SDS_P1;SDS_P2;PMS_P1;PMS_P2;Temp;Humidity;BMP_temperature;BMP_pressure;BME280_temperature;BME280_humidity;BME280_pressure;Samples;Min_cycle;Max_cycle;Signal;HPM_P1;HPM_P2
2022/01/22 00:01:18;;;;;;;9.08;3.98;;;;;;;-2.18;100.00;98389.07;1732681;81;21529;-68
2022/01/22 00:03:45;;;;;;;9.25;4.03;;;;;;;-2.17;100.00;98391.53;1735765;81;21521;-68
2022/01/22 00:06:11;;;;;;;9.13;4.62;;;;;;;-2.15;100.00;98392.63;1731045;81;21621;-69
2022/01/22 00:08:38;;;;;;;9.40;4.58;;;;;;;-2.16;100.00;98391.02;1731033;82;21627;-69
2022/01/22 00:11:04;;;;;;;13.05;7.40;;;;;;;-2.18;100.00;98390.41;1721858;82;21050;-69
2022/01/22 00:16:17;;;;;;;10.93;5.00;;;;;;;-2.15;100.00;98391.28;1728552;82;20111;-68
2022/01/22 00:18:46;;;;;;;11.38;4.58;;;;;;;-2.20;100.00;98389.31;1719403;82;21086;-69
2022/01/22 00:21:12;;;;;;;8.55;5.12;;;;;;;-2.19;100.00;98394.09;1714274;82;21341;-68
2022/01/22 00:23:43;;;;;;;9.93;4.78;;;;;;;-2.19;100.00;98394.92;1723309;82;21014;-68
2022/01/22 00:26:07;;;;;;;10.08;4.67;;;;;;;-2.18;100.00;98394.41;1713740;82;21639;-68
2022/01/22 00:28:34;;;;;;;10.90;4.60;;;;;;;-2.19;100.00;98394.92;1717579;83;21052;-69
2022/01/22 00:31:00;;;;;;;9.40;4.62;;;;;;;-2.17;100.00;98393.37;1724689;82;21097;-67
2022/01/22 00:33:27;;;;;;;7.50;4.85;;;;;;;-2.18;100.00;98397.06;1690339;83;21038;-69
2022/01/22 00:35:54;;;;;;;9.30;4.90;;;;;;;-2.19;100.00;98388.77;1711830;82;21091;-68
2022/01/22 00:38:20;;;;;;;9.33;4.37;;;;;;;-2.20;100.00;98395.16;1711156;83;21056;-69
2022/01/22 00:40:51;;;;;;;8.45;4.33;;;;;;;-2.21;100.00;98394.85;1722854;81;21059;-69
2022/01/22 00:43:15;;;;;;;6.62;4.17;;;;;;;-2.23;100.00;98402.27;1737487;82;21043;-69
2022/01/22 00:45:41;;;;;;;8.15;4.30;;;;;;;-2.21;100.00;98397.52;1712954;82;21026;-69
2022/01/22 00:48:08;;;;;;;7.75;4.53;;;;;;;-2.22;100.00;98397.21;1707995;83;21011;-68
2022/01/22 00:50:34;;;;;;;8.70;3.85;;;;;;;-2.22;100.00;98391.88;1725219;82;21011;-68
2022/01/22 00:53:00;;;;;;;7.22;3.77;;;;;;;-2.22;100.00;98391.37;1719518;82;21007;-69
2022/01/22 00:55:29;;;;;;;6.60;3.98;;;;;;;-2.21;100.00;98400.19;1718539;81;20968;-69
2022/01/22 00:57:56;;;;;;;7.90;3.60;;;;;;;-2.20;100.00;98393.31;1729825;82;21003;-68
2022/01/22 01:00:22;;;;;;;6.20;3.35;;;;;;;-2.21;100.00;98399.67;1722385;82;21042;-68
2022/01/22 01:02:49;;;;;;;7.70;3.95;;;;;;;-2.22;100.00;98397.21;1719919;82;21617;-69
2022/01/22 01:05:15;;;;;;;8.23;3.83;;;;;;;-2.25;100.00;98392.33;1724369;82;21595;-69
2022/01/22 01:07:43;;;;;;;9.38;4.35;;;;;;;-2.28;100.00;98397.59;1709012;82;21118;-69
2022/01/22 01:10:13;;;;;;;13.88;5.83;;;;;;;-2.30;100.00;98396.98;1730446;82;21063;-68
2022/01/22 01:12:41;;;;;;;20.80;8.93;;;;;;;-2.33;100.00;98394.77;1719132;82;21071;-69
2022/01/22 01:36:36;;;;;;;8.78;3.30;;;;;;;-2.52;100.00;98397.14;1739756;81;21622;-69
2022/01/22 01:39:06;;;;;;;7.20;3.42;;;;;;;-2.52;100.00;98398.48;1728779;81;21615;-69
2022/01/22 01:41:46;;;;;;;7.10;3.75;;;;;;;-2.51;100.00;98399.56;1730012;82;21565;-69
2022/01/22 01:44:05;;;;;;;7.33;3.77;;;;;;;-2.48;100.00;98407.66;1730901;82;21090;-69
2022/01/22 01:46:49;;;;;;;8.95;3.52;;;;;;;-2.47;100.00;98412.45;1712127;82;21002;-69
2022/01/22 01:49:16;;;;;;;7.67;3.52;;;;;;;-2.46;100.00;98412.23;1736310;81;21078;-69
2022/01/22 01:51:43;;;;;;;6.50;3.02;;;;;;;-2.46;100.00;98410.91;1743896;81;21679;-69
2022/01/22 01:59:43;;;;;;;6.00;3.17;;;;;;;-2.38;100.00;98414.63;1730251;81;21019;-69
2022/01/22 02:02:12;;;;;;;6.78;3.25;;;;;;;-2.38;100.00;98422.63;1731200;82;21051;-69
2022/01/22 02:04:41;;;;;;;6.25;2.87;;;;;;;-2.34;100.00;98421.15;1738376;82;21039;-69
2022/01/22 02:07:09;;;;;;;6.35;2.98;;;;;;;-2.33;100.00;98417.94;1732908;82;21145;-69
2022/01/22 02:09:38;;;;;;;7.50;3.22;;;;;;;-2.33;100.00;98416.09;1731813;81;21035;-69
2022/01/22 02:12:13;;;;;;;8.53;3.52;;;;;;;-2.32;100.00;98422.24;1728511;81;21067;-69
2022/01/22 02:25:31;;;;;;;8.55;3.35;;;;;;;-2.29;100.00;98417.80;1680905;84;21054;-69
2022/01/22 02:28:00;;;;;;;6.62;2.80;;;;;;;-2.32;100.00;98418.24;1673402;85;21029;-69
2022/01/22 02:30:31;;;;;;;7.30;3.65;;;;;;;-2.32;100.00;98419.58;1656178;85;21425;-69
2022/01/22 02:35:52;;;;;;;8.50;3.72;;;;;;;-2.33;100.00;98422.75;1712448;82;21518;-68
2022/01/22 02:38:20;;;;;;;8.08;3.72;;;;;;;-2.31;100.00;98419.88;1713108;82;21013;-68
2022/01/22 02:40:46;;;;;;;6.55;3.00;;;;;;;-2.31;100.00;98429.21;1717785;82;21044;-69
2022/01/22 02:43:12;;;;;;;6.80;3.02;;;;;;;-2.31;100.00;98429.21;1716275;82;21459;-68
2022/01/22 02:45:40;;;;;;;7.08;3.22;;;;;;;-2.30;100.00;98430.30;1699259;81;21019;-69
2022/01/22 02:48:07;;;;;;;8.78;3.20;;;;;;;-2.30;100.00;98436.19;1693028;82;21024;-69
2022/01/22 02:50:34;;;;;;;7.22;2.60;;;;;;;-2.30;100.00;98428.97;1722166;82;21559;-68
2022/01/22 02:53:04;;;;;;;8.58;2.90;;;;;;;-2.30;100.00;98424.19;1720557;82;21573;-69
2022/01/22 02:55:32;;;;;;;6.87;2.98;;;;;;;-2.31;100.00;98428.70;1719030;82;21035;-68
2022/01/22 02:58:00;;;;;;;9.40;3.55;;;;;;;-2.30;100.00;98434.30;1718416;82;20956;-68
2022/01/22 03:00:27;;;;;;;9.83;5.03;;;;;;;-2.29;100.00;98432.45;1717502;82;21098;-69
2022/01/22 03:02:54;;;;;;;12.00;6.50;;;;;;;-2.27;100.00;98426.41;1718063;82;21526;-69
2022/01/22 03:05:22;;;;;;;8.10;4.25;;;;;;;-2.25;100.00;98430.98;1729941;82;21019;-69
2022/01/22 03:07:53;;;;;;;8.55;2.77;;;;;;;-2.23;100.00;98426.27;1721218;82;21083;-68
2022/01/22 03:10:22;;;;;;;10.50;4.08;;;;;;;-2.23;100.00;98431.05;1723192;82;21035;-68
2022/01/22 03:27:18;;;;;;;9.25;2.55;;;;;;;-2.17;100.00;98448.03;1719959;82;20972;-69
2022/01/22 03:28:28;;;;;;;5.90;2.22;;;;;;;-2.19;100.00;98438.91;1714433;82;21041;-68
2022/01/22 03:30:53;;;;;;;7.03;2.58;;;;;;;-2.17;100.00;98445.36;1731277;82;21049;-69
2022/01/22 03:33:22;;;;;;;8.05;2.75;;;;;;;-2.17;100.00;98454.18;1725605;82;21044;-68
2022/01/22 03:35:55;;;;;;;6.53;2.50;;;;;;;-2.16;100.00;98452.33;1724710;81;21551;-68
2022/01/22 03:38:17;;;;;;;9.95;3.00;;;;;;;-2.17;100.00;98451.52;1728807;82;20932;-69
2022/01/22 03:40:48;;;;;;;7.30;2.55;;;;;;;-2.20;100.00;98447.96;1726761;82;21074;-68
2022/01/22 03:43:12;;;;;;;8.43;2.60;;;;;;;-2.21;100.00;98458.32;1721024;82;21012;-68
2022/01/22 03:45:39;;;;;;;7.35;2.70;;;;;;;-2.21;100.00;98445.50;1719464;82;21099;-69
2022/01/22 03:48:05;;;;;;;9.55;3.12;;;;;;;-2.22;100.00;98444.69;1726048;82;21051;-68
2022/01/22 03:50:32;;;;;;;10.82;3.75;;;;;;;-2.22;100.00;98447.87;1714490;82;21031;-69
2022/01/22 03:53:00;;;;;;;7.45;3.37;;;;;;;-2.24;100.00;98447.28;1720709;82;21475;-68
2022/01/22 03:55:46;;;;;;;7.97;3.67;;;;;;;-2.25;100.00;98447.80;1726887;81;21039;-68
2022/01/22 03:58:16;;;;;;;6.45;3.15;;;;;;;-2.26;100.00;98445.34;1698304;82;21028;-69
2022/01/22 04:00:43;;;;;;;7.33;2.72;;;;;;;-2.30;100.00;98451.63;1679514;84;21923;-68
2022/01/22 04:03:32;;;;;;;;;;;;;;;-2.33;100.00;98457.92;1720309;82;21025;-68
2022/01/22 04:05:57;;;;;;;7.12;2.70;;;;;;;-2.35;100.00;98466.16;1717276;82;20469;-68
2022/01/22 04:08:17;;;;;;;6.30;2.65;;;;;;;-2.41;100.00;98463.04;1724785;82;21056;-69
2022/01/22 04:10:43;;;;;;;6.97;2.92;;;;;;;-2.39;100.00;98464.14;1721050;82;21126;-68
2022/01/22 04:13:14;;;;;;;8.70;3.87;;;;;;;-2.40;100.00;98467.83;1736641;82;21090;-68
2022/01/22 04:15:40;;;;;;;8.45;3.40;;;;;;;-2.40;100.00;98461.17;1740904;81;21070;-68
2022/01/22 04:26:42;;;;;;;9.80;4.85;;;;;;;-2.36;100.00;98490.34;1727249;81;21066;-69
2022/01/22 04:28:58;;;;;;;7.97;3.70;;;;;;;-2.35;100.00;98472.00;1715078;82;21048;-69
2022/01/22 04:31:24;;;;;;;8.35;2.92;;;;;;;-2.34;100.00;98485.63;1725905;82;21159;-69
2022/01/22 04:33:51;;;;;;;8.65;2.67;;;;;;;-2.34;100.00;98484.30;1730119;81;21031;-69
2022/01/22 04:36:19;;;;;;;6.40;2.40;;;;;;;-2.34;100.00;98482.45;1716152;81;21633;-69
2022/01/22 04:38:46;;;;;;;8.83;2.98;;;;;;;-2.34;100.00;98489.63;1728664;81;21346;-69
2022/01/22 04:41:13;;;;;;;7.90;3.15;;;;;;;-2.33;100.00;98485.91;1735516;81;21098;-69
2022/01/22 04:43:41;;;;;;;7.33;2.80;;;;;;;-2.34;100.00;98484.30;1737117;82;21834;-69
2022/01/22 04:46:23;;;;;;;7.35;2.85;;;;;;;-2.34;100.00;98480.30;1730587;81;21104;-69
2022/01/22 04:57:02;;;;;;;15.00;5.10;;;;;;;-2.35;100.00;98482.14;1736631;81;21090;-68
2022/01/22 04:59:28;;;;;;;9.00;3.77;;;;;;;-2.38;100.00;98485.77;1731544;81;21113;-69
2022/01/22 05:01:55;;;;;;;13.00;4.17;;;;;;;-2.42;100.00;98492.05;1730380;82;21093;-69
2022/01/22 05:04:24;;;;;;;10.82;4.42;;;;;;;-2.42;100.00;98487.23;1743080;82;21497;-69
2022/01/22 05:06:52;;;;;;;5.90;2.55;;;;;;;-2.42;100.00;98492.56;1671240;82;21061;-69
2022/01/22 05:09:23;;;;;;;7.67;3.20;;;;;;;-2.45;100.00;98489.83;1738396;82;21065;-69
2022/01/22 05:11:56;;;;;;;9.38;3.40;;;;;;;-2.46;100.00;98493.52;1735160;82;21178;-68
2022/01/22 05:14:26;;;;;;;9.55;3.67;;;;;;;-2.47;100.00;98495.05;1740444;82;21006;-69
2022/01/22 05:16:56;;;;;;;12.58;4.90;;;;;;;-2.46;100.00;98491.36;1713927;82;21079;-68
2022/01/22 05:19:44;;;;;;;9.85;3.80;;;;;;;-2.46;100.00;98489.52;1719418;82;20969;-69
2022/01/22 05:22:10;;;;;;;8.58;3.72;;;;;;;-2.45;100.00;98492.49;1698519;82;21072;-68
2022/01/22 05:24:33;;;;;;;11.05;3.40;;;;;;;-2.46;100.00;98490.03;1721762;82;21060;-68
2022/01/22 05:30:36;;;;;;;9.30;3.67;;;;;;;-2.41;100.00;98490.20;1804597;78;22948;-69
2022/01/22 05:38:05;;;;;;;9.40;2.83;;;;;;;-2.41;100.00;98506.20;1771602;79;21598;-69
2022/01/22 05:40:32;;;;;;;9.50;3.08;;;;;;;-2.44;100.00;98506.09;1745078;82;21003;-69
2022/01/22 05:42:58;;;;;;;9.95;2.77;;;;;;;-2.44;100.00;98510.63;1745165;80;21029;-69
2022/01/22 05:45:26;;;;;;;9.18;3.08;;;;;;;-2.42;100.00;98511.22;1741300;81;21012;-69
2022/01/22 05:47:53;;;;;;;8.08;2.95;;;;;;;-2.40;100.00;98519.80;1748088;81;21573;-69
2022/01/22 05:50:33;;;;;;;8.85;2.72;;;;;;;-2.37;100.00;98522.05;1763557;79;21506;-69
2022/01/22 05:53:01;;;;;;;7.30;2.58;;;;;;;-2.37;100.00;98517.52;1751154;80;21541;-69
2022/01/22 06:00:45;;;;;;;7.97;2.40;;;;;;;-2.33;100.00;98530.70;1750276;81;21649;-68
2022/01/22 06:03:16;;;;;;;9.40;3.35;;;;;;;-2.32;100.00;98532.34;1691701;81;21147;-69
2022/01/22 06:05:43;;;;;;;13.03;4.08;;;;;;;-2.30;100.00;98536.14;1689348;84;20974;-69
2022/01/22 06:08:15;;;;;;;8.65;3.15;;;;;;;-2.32;100.00;98537.68;1725794;81;21608;-69
2022/01/22 06:10:40;;;;;;;7.20;3.15;;;;;;;-2.32;100.00;98541.67;1722666;83;21082;-69
2022/01/22 06:13:17;;;;;;;6.25;2.70;;;;;;;-2.32;100.00;98537.68;1697218;82;21082;-69
2022/01/22 06:15:42;;;;;;;7.80;3.20;;;;;;;-2.32;100.00;98537.68;1711752;82;21613;-69
2022/01/22 06:18:27;;;;;;;9.20;3.10;;;;;;;-2.32;100.00;98543.01;1686227;82;21121;-69
2022/01/22 06:20:53;;;;;;;7.95;2.77;;;;;;;-2.29;100.00;98547.08;1708802;82;21027;-69
2022/01/22 06:23:21;;;;;;;7.47;2.85;;;;;;;-2.29;100.00;98546.56;1746920;81;21000;-69
2022/01/22 06:25:48;;;;;;;8.63;3.12;;;;;;;-2.28;100.00;98548.72;1715514;83;21055;-68
2022/01/22 06:28:14;;;;;;;10.48;3.98;;;;;;;-2.29;100.00;98557.23;1717250;81;21152;-69
2022/01/22 06:30:41;;;;;;;;;;;;;;;-2.26;100.00;98553.30;1678175;82;21039;-69
2022/01/22 06:33:09;;;;;;;13.65;4.67;;;;;;;-2.27;100.00;98553.03;1669227;84;20114;-69
2022/01/22 06:35:37;;;;;;;9.60;3.40;;;;;;;-2.29;100.00;98556.41;1677706;84;21051;-69
2022/01/22 06:38:06;;;;;;;6.40;3.10;;;;;;;-2.27;100.00;98559.17;1700857;83;21024;-69
2022/01/22 06:43:53;;;;;;;11.43;4.37;;;;;;;-2.28;100.00;98562.87;1694873;82;21545;-69
2022/01/22 06:46:22;;;;;;;12.30;5.20;;;;;;;-2.27;100.00;98573.84;1688675;84;21070;-69
2022/01/22 06:48:52;;;;;;;11.20;4.33;;;;;;;-2.25;100.00;98574.94;1686139;84;21116;-69
2022/01/22 06:51:39;;;;;;;6.50;2.83;;;;;;;-2.24;100.00;98588.58;1712882;82;21051;-68
2022/01/22 06:54:07;;;;;;;8.78;3.85;;;;;;;-2.25;100.00;98583.75;1692205;84;21074;-69
2022/01/22 06:56:34;;;;;;;7.22;3.10;;;;;;;-2.37;100.00;98582.02;1679933;84;21598;-69
2022/01/22 06:59:03;;;;;;;9.73;3.85;;;;;;;-2.44;100.00;98577.27;1674338;83;21117;-69
2022/01/22 07:01:29;;;;;;;9.48;4.45;;;;;;;-2.47;100.00;98588.33;1706995;82;21573;-69
2022/01/22 07:04:04;;;;;;;14.00;6.17;;;;;;;-2.42;100.00;98587.99;1700822;82;21073;-69
2022/01/22 07:06:33;;;;;;;11.88;5.17;;;;;;;-2.37;100.00;98589.48;1707984;83;21121;-69
2022/01/22 07:09:00;;;;;;;8.68;3.77;;;;;;;-2.30;100.00;98594.23;1721659;83;21579;-68
2022/01/22 07:11:28;;;;;;;9.08;3.85;;;;;;;-2.23;100.00;98590.22;1670385;83;21170;-68
2022/01/22 07:13:55;;;;;;;8.43;2.75;;;;;;;-2.17;100.00;98586.67;1682973;84;21085;-68
2022/01/22 07:16:21;;;;;;;;;;;;;;;-2.10;100.00;98586.91;1690637;82;21604;-69
2022/01/22 07:18:52;;;;;;;10.05;3.50;;;;;;;-2.05;100.00;98584.91;1683516;82;20105;-69
2022/01/22 07:21:20;;;;;;;5.97;2.55;;;;;;;-2.07;100.00;98589.14;1725441;81;21624;-68
2022/01/22 07:26:16;;;;;;;9.45;3.05;;;;;;;-2.02;100.00;98591.16;1679772;84;21092;-69
2022/01/22 07:28:44;;;;;;;10.38;4.10;;;;;;;-2.02;100.00;98588.49;1691454;83;21564;-69
2022/01/22 07:31:13;;;;;;;11.35;4.30;;;;;;;-2.00;100.00;98590.41;1704463;83;21094;-68
2022/01/22 07:33:41;;;;;;;11.70;3.95;;;;;;;-1.97;100.00;98592.64;1715747;83;21119;-69
2022/01/22 07:36:08;;;;;;;7.03;3.27;;;;;;;-1.98;100.00;98584.88;1716379;83;21048;-69
2022/01/22 07:38:38;;;;;;;;;;;;;;;-1.95;100.00;98586.58;1729576;81;21085;-69
2022/01/22 07:41:03;;;;;;;7.15;2.85;;;;;;;-1.92;100.00;98597.32;1714520;81;20117;-68
2022/01/22 07:43:31;;;;;;;7.42;3.08;;;;;;;-1.95;100.00;98589.25;1726535;83;21078;-68
2022/01/22 07:46:16;;;;;;;10.13;3.37;;;;;;;-1.95;100.00;98597.77;1727310;83;21672;-69
2022/01/22 07:48:45;;;;;;;10.68;3.87;;;;;;;-1.88;100.00;98595.85;1709681;81;21615;-69
2022/01/22 07:51:11;;;;;;;;;;;;;;;-1.83;100.00;98605.33;1725145;81;21551;-69
2022/01/22 07:53:38;;;;;;;8.50;3.08;;;;;;;-1.79;100.00;98611.34;1713794;81;20121;-70
2022/01/22 07:56:06;;;;;;;6.00;2.20;;;;;;;-1.78;100.00;98618.33;1702684;83;21122;-69
2022/01/22 07:58:32;;;;;;;6.33;2.50;;;;;;;-1.75;100.00;98618.39;1705573;81;21066;-70
2022/01/22 08:00:59;;;;;;;4.95;1.92;;;;;;;-1.70;100.00;98619.90;1706122;83;21070;-70
2022/01/22 08:03:27;;;;;;;5.85;2.50;;;;;;;-1.67;100.00;98634.13;1697011;84;20991;-70
2022/01/22 08:05:59;;;;;;;7.12;2.75;;;;;;;-1.63;100.00;98625.98;1679754;83;21665;-70
2022/01/22 08:08:27;;;;;;;8.75;3.25;;;;;;;-1.63;100.00;98625.98;1703448;83;21473;-70
2022/01/22 08:11:12;;;;;;;9.05;3.58;;;;;;;-1.66;100.00;98619.22;1725035;83;21437;-69
2022/01/22 08:13:39;;;;;;;6.45;2.83;;;;;;;-1.73;100.00;98626.47;1698972;83;21035;-69
2022/01/22 08:16:07;;;;;;;9.58;3.00;;;;;;;-1.74;100.00;98634.20;1705562;83;21248;-73
2022/01/22 08:18:33;;;;;;;8.63;2.62;;;;;;;-1.72;100.00;98632.62;1716379;83;22913;-72
2022/01/22 08:21:01;;;;;;;7.00;3.02;;;;;;;-1.66;100.00;98639.74;1689426;83;21034;-73
2022/01/22 08:23:30;;;;;;;7.47;2.98;;;;;;;-1.63;100.00;98638.78;1658507;83;21050;-73
2022/01/22 08:26:08;;;;;;;7.65;3.50;;;;;;;-1.54;100.00;98628.66;1650326;83;21121;-72
2022/01/22 08:28:53;;;;;;;5.50;2.92;;;;;;;-1.45;100.00;98639.33;1706593;81;21180;-69
2022/01/22 08:36:48;;;;;;;7.25;3.42;;;;;;;-1.24;100.00;98646.11;1694582;83;21608;-71
2022/01/22 08:39:17;;;;;;;8.88;3.77;;;;;;;-1.19;100.00;98642.23;1709906;83;20995;-71
2022/01/22 08:41:45;;;;;;;11.63;3.80;;;;;;;-1.13;100.00;98644.83;1708839;83;21094;-70
2022/01/22 08:44:13;;;;;;;7.37;3.45;;;;;;;-1.05;100.00;98645.05;1705950;82;21106;-71
2022/01/22 08:46:41;;;;;;;9.18;4.10;;;;;;;-0.99;100.00;98647.36;1712188;81;21043;-71
2022/01/22 08:49:08;;;;;;;9.78;3.47;;;;;;;-0.93;100.00;98636.59;1700580;82;21038;-73
2022/01/22 08:51:39;;;;;;;7.42;3.40;;;;;;;-0.87;100.00;98643.70;1721090;82;21078;-72
2022/01/22 08:54:10;;;;;;;6.50;3.40;;;;;;;-0.86;100.00;98650.69;1665631;84;21034;-71
2022/01/22 08:56:40;;;;;;;7.50;3.60;;;;;;;-0.82;100.00;98649.20;1699621;81;21615;-72
2022/01/22 08:59:08;;;;;;;7.97;3.65;;;;;;;-0.75;100.00;98647.26;1737340;81;21050;-72
2022/01/22 09:01:39;;;;;;;8.68;4.17;;;;;;;-0.72;100.00;98648.66;1758527;81;21117;-71
2022/01/22 09:04:07;;;;;;;9.48;3.30;;;;;;;-0.70;100.00;98650.05;1709039;81;21022;-71
2022/01/22 09:06:36;;;;;;;9.38;3.98;;;;;;;-0.66;100.00;98639.73;1680913;84;21078;-71
2022/01/22 09:09:12;;;;;;;9.83;3.50;;;;;;;-0.62;100.00;98643.06;1677955;83;21102;-72
2022/01/22 09:11:44;;;;;;;8.40;3.95;;;;;;;-0.65;100.00;98644.86;1670069;84;21143;-72
2022/01/22 09:14:17;;;;;;;7.80;4.10;;;;;;;-0.66;100.00;98651.23;1655261;84;21066;-70
2022/01/22 09:16:46;;;;;;;9.70;3.85;;;;;;;-0.67;100.00;98648.77;1673784;84;21068;-73
2022/01/22 09:19:13;;;;;;;7.50;3.72;;;;;;;-0.67;100.00;98644.25;1703239;83;21111;-72
2022/01/22 09:21:45;;;;;;;7.58;3.80;;;;;;;-0.67;100.00;98652.78;1710116;83;22069;-72
2022/01/22 09:24:13;;;;;;;7.80;4.15;;;;;;;-0.72;100.00;98656.16;1706631;83;21570;-72
2022/01/22 09:26:40;;;;;;;7.53;3.65;;;;;;;-0.75;100.00;98651.78;1689166;83;21042;-71
2022/01/22 09:29:06;;;;;;;6.55;3.62;;;;;;;-0.74;100.00;98660.89;1714800;81;21054;-71
2022/01/22 09:31:33;;;;;;;;;;;;;;;-0.72;100.00;98660.68;1685936;82;21051;-74
2022/01/22 09:34:01;;;;;;;;;;;;;;;-0.75;100.00;98663.80;1710792;82;20169;-73
2022/01/22 09:36:35;;;;;;;8.68;4.35;;;;;;;-0.84;100.00;98661.95;1662518;83;20147;-75
2022/01/22 09:39:16;;;;;;;7.92;3.35;;;;;;;-0.86;100.00;98665.38;1685134;83;21034;-72
2022/01/22 09:41:51;;;;;;;7.25;3.15;;;;;;;-0.81;100.00;98664.69;1698211;84;21125;-72
2022/01/22 09:44:33;;;;;;;5.72;2.80;;;;;;;-0.77;100.00;98668.55;1692736;84;21065;-72
2022/01/22 09:47:20;;;;;;;6.03;2.98;;;;;;;-0.74;100.00;98671.58;1696341;82;21125;-74
2022/01/22 09:50:08;;;;;;;7.65;2.85;;;;;;;-0.70;100.00;98664.75;1658618;85;21603;-68
2022/01/22 09:52:55;;;;;;;7.30;3.17;;;;;;;-0.51;100.00;98665.02;1626600;85;21639;-70
2022/01/22 09:55:40;;;;;;;9.23;3.35;;;;;;;-0.15;100.00;98669.96;1635539;87;21668;-70
2022/01/22 09:58:08;;;;;;;7.50;3.40;;;;;;;0.18;100.00;98676.15;1630212;85;22094;-70
2022/01/22 10:00:39;;;;;;;7.90;4.25;;;;;;;0.35;100.00;98671.22;1610511;87;21161;-71
2022/01/22 10:03:16;;;;;;;11.93;4.90;;;;;;;0.44;100.00;98668.48;1626029;87;21160;-71
2022/01/22 10:05:45;;;;;;;8.83;3.65;;;;;;;0.51;100.00;98675.05;1626672;87;21035;-67
2022/01/22 10:08:36;;;;;;;8.10;4.03;;;;;;;0.55;100.00;98675.41;1625571;87;21087;-69
2022/01/22 10:11:29;;;;;;;12.18;4.28;;;;;;;0.40;100.00;98667.30;1650032;85;21122;-69
2022/01/22 10:14:12;;;;;;;8.70;4.28;;;;;;;0.19;100.00;98682.59;1611851;88;21105;-69
2022/01/22 10:16:39;;;;;;;13.83;4.37;;;;;;;-0.03;100.00;98682.83;1604423;88;21103;-68
2022/01/22 10:19:20;;;;;;;8.48;4.30;;;;;;;-0.21;100.00;98678.88;1607749;87;21685;-68
2022/01/22 10:21:50;;;;;;;7.87;4.00;;;;;;;-0.31;100.00;98683.97;1619119;87;21666;-69
2022/01/22 10:24:33;;;;;;;6.30;3.47;;;;;;;-0.41;100.00;98682.36;1581543;87;21078;-69
2022/01/22 10:27:38;;;;;;;8.75;4.30;;;;;;;-0.42;100.00;98682.06;1612889;87;21700;-69
2022/01/22 10:30:08;;;;;;;8.10;4.30;;;;;;;-0.37;100.00;98692.91;1612457;86;21054;-69
2022/01/22 10:32:48;;;;;;;7.25;3.65;;;;;;;-0.33;100.00;98684.21;1633274;86;21133;-69
2022/01/22 10:35:31;;;;;;;7.95;4.40;;;;;;;-0.32;100.00;98691.72;1623605;85;21041;-68
2022/01/22 10:38:18;;;;;;;8.25;3.83;;;;;;;-0.41;100.00;98695.73;1647908;85;21070;-69
2022/01/22 10:40:46;;;;;;;7.05;3.22;;;;;;;-0.47;100.00;98688.63;1675838;84;21104;-69
2022/01/22 10:43:32;;;;;;;7.67;3.33;;;;;;;-0.51;100.00;98686.41;1660735;85;21074;-68
2022/01/22 10:46:32;;;;;;;7.60;3.00;;;;;;;-0.50;100.00;98694.70;1638566;86;21103;-69
2022/01/22 10:48:57;;;;;;;6.47;3.02;;;;;;;-0.50;100.00;98692.03;1592437;88;21095;-69
2022/01/22 10:51:24;;;;;;;5.35;2.80;;;;;;;-0.48;100.00;98689.14;1667256;85;21731;-69
2022/01/22 10:53:58;;;;;;;8.33;3.62;;;;;;;-0.47;100.00;98685.95;1662397;85;21061;-69
2022/01/22 10:56:27;;;;;;;7.87;3.40;;;;;;;-0.50;100.00;98686.68;1635850;86;21101;-69
2022/01/22 10:59:07;;;;;;;6.62;3.40;;;;;;;-0.54;100.00;98692.21;1603520;88;21070;-70
2022/01/22 11:01:56;;;;;;;8.58;3.33;;;;;;;-0.57;100.00;98691.30;1629332;87;21110;-71
2022/01/22 11:04:32;;;;;;;7.83;3.40;;;;;;;-0.50;100.00;98689.36;1621489;87;21088;-70
2022/01/22 11:07:07;;;;;;;8.00;3.45;;;;;;;-0.46;100.00;98694.28;1624385;87;21146;-70
2022/01/22 11:09:35;;;;;;;7.25;3.35;;;;;;;-0.49;100.00;98690.17;1643125;85;21149;-70
2022/01/22 11:12:05;;;;;;;6.67;3.10;;;;;;;-0.45;100.00;98685.19;1619274;87;21085;-70
2022/01/22 11:14:34;;;;;;;7.95;3.62;;;;;;;-0.48;100.00;98696.34;1605451;87;21082;-70
2022/01/22 11:17:01;;;;;;;6.28;3.35;;;;;;;-0.46;100.00;98687.59;1614005;87;21133;-70
2022/01/22 11:19:33;;;;;;;8.38;3.92;;;;;;;-0.40;100.00;98696.03;1671403;85;21655;-71
2022/01/22 11:22:08;;;;;;;7.75;3.80;;;;;;;-0.39;100.00;98692.33;1669441;84;21088;-68
2022/01/22 11:24:38;;;;;;;6.25;3.25;;;;;;;-0.37;100.00;98691.56;1670592;85;21046;-69
2022/01/22 11:27:06;;;;;;;6.75;3.40;;;;;;;-0.38;100.00;98689.92;1625660;86;21094;-68
2022/01/22 11:29:58;;;;;;;7.80;3.62;;;;;;;-0.35;100.00;98688.95;1636336;86;21106;-70
2022/01/22 11:32:30;;;;;;;7.97;3.40;;;;;;;-0.32;100.00;98689.05;1606005;87;21062;-69
2022/01/22 11:35:02;;;;;;;7.95;3.65;;;;;;;-0.34;100.00;98691.93;1623864;85;21657;-71
2022/01/22 11:37:38;;;;;;;7.08;3.58;;;;;;;-0.36;100.00;98689.20;1605408;86;21122;-71
2022/01/22 11:40:21;;;;;;;8.53;3.65;;;;;;;-0.34;100.00;98690.59;1644449;85;21102;-71
2022/01/22 11:43:06;;;;;;;8.93;4.10;;;;;;;-0.29;100.00;98693.94;1653105;85;21044;-70
2022/01/22 11:45:43;;;;;;;9.98;4.30;;;;;;;-0.22;100.00;98696.81;1595320;88;21058;-68
2022/01/22 11:48:18;;;;;;;10.93;4.12;;;;;;;-0.11;100.00;98698.69;1637349;87;21101;-69
2022/01/22 11:50:47;;;;;;;9.95;3.58;;;;;;;0.02;100.00;98690.17;1648273;86;21540;-69
2022/01/22 11:53:30;;;;;;;7.72;3.45;;;;;;;0.07;100.00;98700.51;1641605;86;21057;-68
2022/01/22 11:56:21;;;;;;;8.25;4.17;;;;;;;0.04;100.00;98701.48;1640111;86;21641;-70
2022/01/22 11:59:04;;;;;;;9.25;4.50;;;;;;;-0.07;100.00;98708.41;1615213;87;21573;-68
2022/01/22 12:01:52;;;;;;;9.70;4.83;;;;;;;-0.09;100.00;98719.35;1619690;87;21037;-68
2022/01/22 12:04:26;;;;;;;11.75;6.62;;;;;;;-0.09;100.00;98725.22;1623869;86;21568;-68
2022/01/22 12:07:07;;;;;;;9.70;5.00;;;;;;;-0.12;100.00;98721.15;1636705;86;21125;-68
2022/01/22 12:15:37;;;;;;;2.50;1.00;;;;;;;-0.73;100.00;98756.59;1635916;86;21021;-69
2022/01/22 12:18:16;;;;;;;2.50;0.85;;;;;;;-1.14;100.00;98758.57;1604305;88;21148;-68
2022/01/22 12:23:34;;;;;;;3.77;1.47;;;;;;;-1.41;100.00;98773.17;1622932;88;20572;-68
2022/01/22 12:26:02;;;;;;;10.15;3.83;;;;;;;-1.54;100.00;98772.27;1641050;86;21089;-69
2022/01/22 12:28:42;;;;;;;8.23;3.62;;;;;;;-1.51;100.00;98776.34;1639439;86;21153;-69
2022/01/22 12:31:17;;;;;;;7.37;3.20;;;;;;;-1.46;100.00;98779.70;1621632;87;21123;-68
2022/01/22 12:33:53;;;;;;;9.80;5.47;;;;;;;-1.52;100.00;98780.86;1615842;87;21596;-71
2022/01/22 12:36:28;;;;;;;6.65;2.90;;;;;;;-1.55;100.00;98774.63;1629154;85;21603;-68
2022/01/22 12:39:07;;;;;;;3.35;1.70;;;;;;;-1.55;100.00;98779.96;1611188;88;21506;-69
2022/01/22 12:46:57;;;;;;;4.28;1.70;;;;;;;-1.51;100.00;98794.52;1635242;86;21134;-68
2022/01/22 12:49:24;;;;;;;3.35;1.85;;;;;;;-1.46;100.00;98798.39;1606834;88;21666;-69
2022/01/22 12:51:57;;;;;;;3.90;1.32;;;;;;;-1.49;100.00;98802.31;1609987;86;21139;-70
2022/01/22 12:54:31;;;;;;;4.10;1.45;;;;;;;-1.45;100.00;98808.83;1627653;87;21050;-68
2022/01/22 12:57:13;;;;;;;2.55;1.30;;;;;;;-1.51;100.00;98803.86;1605483;87;21524;-68
2022/01/22 13:00:30;;;;;;;2.27;1.02;;;;;;;-1.44;100.00;98806.47;1636970;85;21216;-68
2022/01/22 13:02:53;;;;;;;2.22;1.20;;;;;;;-1.42;100.00;98808.42;1620914;87;21170;-68
2022/01/22 13:05:26;;;;;;;3.30;1.37;;;;;;;-1.35;100.00;98815.86;1626742;86;21125;-68
2022/01/22 13:08:00;;;;;;;3.65;1.50;;;;;;;-1.27;100.00;98818.23;1620015;87;21081;-68
2022/01/22 13:10:45;;;;;;;3.55;1.55;;;;;;;-1.23;100.00;98826.63;1625244;87;21117;-69
2022/01/22 13:13:17;;;;;;;5.28;2.10;;;;;;;-1.23;100.00;98832.80;1613956;87;21133;-67
2022/01/22 13:15:44;;;;;;;7.37;2.75;;;;;;;-1.23;100.00;98839.98;1609557;87;21058;-69
2022/01/22 13:18:12;;;;;;;8.20;3.27;;;;;;;-1.21;100.00;98841.42;1621672;88;21565;-69
2022/01/22 13:20:41;;;;;;;;;;;;;;;-1.15;100.00;98846.40;1635789;86;21111;-70
2022/01/22 13:23:16;;;;;;;8.95;3.08;;;;;;;-1.08;100.00;98843.97;1617704;87;20155;-67
2022/01/22 13:25:43;;;;;;;11.57;4.10;;;;;;;-1.13;100.00;98852.33;1632552;86;21909;-68
2022/01/22 13:28:12;;;;;;;7.83;4.25;;;;;;;-1.12;100.00;98853.97;1670916;84;21044;-68
2022/01/22 13:30:48;;;;;;;8.85;4.55;;;;;;;-1.17;100.00;98856.49;1667086;84;21057;-68
2022/01/22 13:33:31;;;;;;;10.18;4.47;;;;;;;-1.23;100.00;98860.84;1637785;86;21433;-68
2022/01/22 13:49:26;;;;;;;9.10;4.50;;;;;;;-1.53;100.00;98874.00;1634377;87;21103;-67
2022/01/22 13:51:57;;;;;;;8.63;3.42;;;;;;;-1.60;100.00;98879.07;1653644;85;21110;-67